createdAt,value
2019-02-21T00:00:00.791Z,-0.26
2019-02-21T00:02:32.515Z,-0.29
2019-02-21T00:05:02.717Z,-0.23
2019-02-21T00:07:33.315Z,-0.18
2019-02-21T00:10:03.418Z,-0.20
2019-02-21T00:12:33.810Z,-0.22
2019-02-21T00:15:04.248Z,-0.15
2019-02-21T00:17:35.824Z,-0.13
2019-02-21T00:20:06.474Z,-0.14
2019-02-21T00:22:36.562Z,-0.21
2019-02-21T00:25:06.672Z,-0.14
2019-02-21T00:27:36.804Z,-0.13
2019-02-21T00:30:07.151Z,0.07
2019-02-21T00:32:37.243Z,0.15
2019-02-21T00:35:07.572Z,0.09
2019-02-21T00:37:38.948Z,0.07
2019-02-21T00:40:09.129Z,0.07
2019-02-21T00:42:39.223Z,0.17
2019-02-21T00:45:09.471Z,0.13
2019-02-21T00:47:39.558Z,0.21
2019-02-21T00:50:09.654Z,0.11
2019-02-21T00:52:39.759Z,0.12
2019-02-21T00:55:09.912Z,0.11
2019-02-21T00:57:40.165Z,0.16
2019-02-21T01:00:11.822Z,0.30
2019-02-21T01:02:42.100Z,0.33
2019-02-21T01:05:13.281Z,0.34
2019-02-21T01:07:43.382Z,0.20
2019-02-21T01:10:13.557Z,0.33
2019-02-21T01:12:43.653Z,0.35
2019-02-21T01:15:13.783Z,0.33
2019-02-21T01:17:43.962Z,0.19
2019-02-21T01:20:14.079Z,0.19
2019-02-21T01:22:44.200Z,0.10
2019-02-21T01:25:14.300Z,0.13
2019-02-21T01:27:44.380Z,0.25
2019-02-21T01:30:14.690Z,0.38
2019-02-21T01:32:44.792Z,0.19
2019-02-21T01:35:14.933Z,0.07
2019-02-21T01:37:45.030Z,0.07
2019-02-21T01:40:15.154Z,0.01
2019-02-21T01:42:45.918Z,-0.02
2019-02-21T01:45:16.053Z,-0.05
2019-02-21T01:47:46.711Z,-0.09
2019-02-21T01:50:16.812Z,-0.18
2019-02-21T01:52:47.026Z,-0.21
2019-02-21T01:55:17.169Z,-0.16
2019-02-21T01:57:47.275Z,-0.15
2019-02-21T02:00:17.527Z,-0.10
2019-02-21T02:02:47.693Z,-0.08
2019-02-21T02:05:17.891Z,-0.17
2019-02-21T02:07:47.997Z,-0.20
2019-02-21T02:10:19.219Z,-0.17
2019-02-21T02:12:49.326Z,-0.18
2019-02-21T02:15:19.474Z,-0.16
2019-02-21T02:17:49.611Z,-0.18
2019-02-21T02:20:19.728Z,-0.16
2019-02-21T02:22:49.839Z,-0.14
2019-02-21T02:25:19.975Z,-0.22
2019-02-21T02:27:50.076Z,-0.32
2019-02-21T02:30:20.255Z,-0.29
2019-02-21T02:32:50.365Z,-0.23
2019-02-21T02:35:20.511Z,-0.25
2019-02-21T02:37:50.618Z,-0.16
2019-02-21T02:40:20.750Z,-0.33
2019-02-21T02:42:50.837Z,-0.49
2019-02-21T02:45:21.008Z,-0.49
2019-02-21T02:47:51.115Z,-0.53
2019-02-21T02:50:21.362Z,-0.54
2019-02-21T02:52:51.454Z,-0.52
2019-02-21T02:55:21.564Z,-0.50
2019-02-21T02:57:51.731Z,-0.43
2019-02-21T03:00:21.927Z,-0.50
2019-02-21T03:02:52.014Z,-0.48
2019-02-21T03:05:22.132Z,-0.51
2019-02-21T03:07:52.253Z,-0.42
2019-02-21T03:10:22.544Z,-0.50
2019-02-21T03:12:52.886Z,-0.71
2019-02-21T03:15:23.018Z,-0.72
2019-02-21T03:17:53.139Z,-0.78
2019-02-21T03:20:23.271Z,-0.79
2019-02-21T03:22:53.434Z,-0.93
2019-02-21T03:25:23.588Z,-0.89
2019-02-21T03:27:53.699Z,-0.80
2019-02-21T03:30:23.820Z,-0.74
2019-02-21T03:32:53.941Z,-0.73
2019-02-21T03:35:24.124Z,-0.74
2019-02-21T03:37:54.257Z,-0.57
2019-02-21T03:40:25.366Z,-0.55
2019-02-21T03:42:55.472Z,-0.69
2019-02-21T03:45:27.431Z,-0.70
2019-02-21T03:47:57.540Z,-0.66
2019-02-21T03:50:27.654Z,-0.73
2019-02-21T03:52:57.774Z,-0.91
2019-02-21T03:55:27.902Z,-0.89
2019-02-21T03:57:58.024Z,-0.99
2019-02-21T04:00:28.142Z,-0.96
2019-02-21T04:02:58.250Z,-1.02
2019-02-21T04:05:28.391Z,-0.95
2019-02-21T04:07:58.522Z,-0.94
2019-02-21T04:10:28.626Z,-0.97
2019-02-21T04:12:58.719Z,-0.98
2019-02-21T04:15:28.935Z,-0.97
2019-02-21T04:17:59.033Z,-0.97
2019-02-21T04:20:29.173Z,-1.01
2019-02-21T04:22:59.275Z,-0.91
2019-02-21T04:25:29.419Z,-1.00
2019-02-21T04:27:59.541Z,-1.05
2019-02-21T04:30:29.643Z,-1.01
2019-02-21T04:32:59.766Z,-1.03
2019-02-21T04:35:29.863Z,-1.06
2019-02-21T04:37:59.972Z,-1.13
2019-02-21T04:40:30.089Z,-1.11
2019-02-21T04:43:00.191Z,-1.09
2019-02-21T04:45:30.398Z,-1.09
2019-02-21T04:48:00.507Z,-1.11
2019-02-21T04:50:30.695Z,-1.06
2019-02-21T04:53:00.839Z,-1.10
2019-02-21T04:55:30.987Z,-1.14
2019-02-21T04:58:01.093Z,-1.14
2019-02-21T05:00:31.228Z,-1.16
2019-02-21T05:03:01.353Z,-1.20
2019-02-21T05:05:31.764Z,-1.18
2019-02-21T05:08:01.878Z,-1.18
2019-02-21T05:10:31.999Z,-1.18
2019-02-21T05:13:02.128Z,-1.15
2019-02-21T05:15:32.364Z,-1.19
2019-02-21T05:18:02.467Z,-1.04
2019-02-21T05:20:32.587Z,-1.01
2019-02-21T05:23:02.700Z,-0.98
2019-02-21T05:25:32.848Z,-1.00
2019-02-21T05:28:25.726Z,-0.96
2019-02-21T05:30:59.041Z,-0.98
2019-02-21T05:33:47.263Z,-1.00
2019-02-21T05:36:51.822Z,-1.04
2019-02-21T05:39:46.740Z,-1.01
2019-02-21T05:42:34.601Z,-0.90
2019-02-21T05:45:41.867Z,-0.95
2019-02-21T05:48:30.954Z,-0.96
2019-02-21T05:51:09.939Z,-0.94
2019-02-21T05:53:57.764Z,-1.02
2019-02-21T05:56:46.903Z,-1.08
2019-02-21T05:59:45.139Z,-1.03
2019-02-21T06:02:33.179Z,-1.10
2019-02-21T06:05:12.672Z,-1.01
2019-02-21T06:08:07.786Z,-1.01
2019-02-21T06:10:55.472Z,-1.01
2019-02-21T06:13:51.599Z,-0.95
2019-02-21T06:16:55.911Z,-1.02
2019-02-21T06:19:36.918Z,-0.98
2019-02-21T06:22:24.742Z,-0.98
2019-02-21T06:24:59.918Z,-0.99
2019-02-21T06:27:37.993Z,-0.96
2019-02-21T06:30:18.488Z,-0.90
2019-02-21T06:32:48.608Z,-0.86
2019-02-21T06:35:18.711Z,-0.80
2019-02-21T06:37:48.830Z,-0.87
2019-02-21T06:40:18.942Z,-0.84
2019-02-21T06:42:49.084Z,-0.83
2019-02-21T06:45:19.182Z,-0.78
2019-02-21T06:47:49.286Z,-0.76
2019-02-21T06:50:26.360Z,-0.72
2019-02-21T06:52:51.217Z,-0.87
2019-02-21T06:55:21.329Z,-0.82
2019-02-21T06:57:51.429Z,-0.80
2019-02-21T07:00:21.599Z,-0.79
2019-02-21T07:02:54.208Z,-0.88
2019-02-21T07:05:23.642Z,-0.90
2019-02-21T07:07:53.747Z,-0.94
2019-02-21T07:10:23.877Z,-0.90
2019-02-21T07:12:53.987Z,-0.97
2019-02-21T07:15:24.110Z,-0.95
2019-02-21T07:17:54.329Z,-0.98
2019-02-21T07:20:24.471Z,-0.88
2019-02-21T07:22:54.583Z,-0.82
2019-02-21T07:25:38.210Z,-0.95
2019-02-21T07:28:11.858Z,-1.00
2019-02-21T07:30:40.149Z,-1.02
2019-02-21T07:33:10.264Z,-0.94
2019-02-21T07:35:40.390Z,-0.98
2019-02-21T07:38:10.501Z,-0.92
2019-02-21T07:40:40.645Z,-0.95
2019-02-21T07:43:12.696Z,-0.94
2019-02-21T07:45:42.571Z,-0.88
2019-02-21T07:48:12.678Z,-0.87
2019-02-21T07:50:42.814Z,-0.90
2019-02-21T07:53:12.932Z,-0.89
2019-02-21T07:55:43.219Z,-0.85
2019-02-21T07:58:13.619Z,-0.84
2019-02-21T08:00:43.755Z,-0.81
2019-02-21T08:03:13.872Z,-0.66
2019-02-21T08:05:44.101Z,-0.70
2019-02-21T08:08:14.307Z,-0.74
2019-02-21T08:10:44.441Z,-0.79
2019-02-21T08:13:14.523Z,-0.79
2019-02-21T08:15:44.701Z,-0.76
2019-02-21T08:18:14.985Z,-0.79
2019-02-21T08:20:45.098Z,-0.77
2019-02-21T08:23:15.223Z,-0.82
2019-02-21T08:25:45.494Z,-0.82
2019-02-21T08:28:15.888Z,-0.81
2019-02-21T08:30:46.013Z,-0.86
2019-02-21T08:33:22.267Z,-0.85
2019-02-21T08:35:54.196Z,-0.88
2019-02-21T08:38:24.514Z,-0.81
2019-02-21T08:40:57.090Z,-0.80
2019-02-21T08:43:26.793Z,-0.78
2019-02-21T08:45:57.649Z,-0.82
2019-02-21T08:48:27.932Z,-0.80
2019-02-21T08:50:58.342Z,-0.71
2019-02-21T08:53:28.462Z,-0.79
2019-02-21T08:55:58.584Z,-0.74
2019-02-21T08:58:28.763Z,-0.69
2019-02-21T09:00:59.165Z,-0.74
2019-02-21T09:03:29.415Z,-0.68
2019-02-21T09:05:59.569Z,-0.67
2019-02-21T09:08:33.443Z,-0.67
2019-02-21T09:11:03.922Z,-0.68
2019-02-21T09:13:33.772Z,-0.69
2019-02-21T09:16:04.042Z,-0.61
2019-02-21T09:18:34.177Z,-0.57
2019-02-21T09:21:05.432Z,-0.57
2019-02-21T09:23:35.523Z,-0.54
2019-02-21T09:26:05.738Z,-0.54
2019-02-21T09:28:35.916Z,-0.56
2019-02-21T09:31:06.140Z,-0.61
2019-02-21T09:33:37.249Z,-0.60
2019-02-21T09:36:07.647Z,-0.61
2019-02-21T09:38:37.767Z,-0.56
2019-02-21T09:41:07.959Z,-0.53
2019-02-21T09:43:38.231Z,-0.55
2019-02-21T09:46:08.467Z,-0.48
2019-02-21T09:48:38.898Z,-0.44
2019-02-21T09:51:08.992Z,-0.47
2019-02-21T09:53:39.106Z,-0.43
2019-02-21T09:56:09.239Z,-0.41
2019-02-21T09:58:39.438Z,-0.39
2019-02-21T10:01:09.551Z,-0.35
2019-02-21T10:03:39.661Z,-0.36
2019-02-21T10:06:09.792Z,-0.24
2019-02-21T10:08:39.896Z,-0.22
2019-02-21T10:11:11.430Z,-0.20
2019-02-21T10:13:41.862Z,-2.80
2019-02-21T10:16:12.018Z,-0.24
2019-02-21T10:18:42.090Z,-0.23
2019-02-21T10:21:12.295Z,-0.21
2019-02-21T10:23:42.402Z,-0.14
2019-02-21T10:26:12.524Z,-0.26
2019-02-21T10:28:45.054Z,-0.19
2019-02-21T10:31:14.514Z,-0.03
2019-02-21T10:33:47.301Z,-0.01
2019-02-21T10:36:16.864Z,0.00
2019-02-21T10:38:47.016Z,0.03
2019-02-21T10:41:17.141Z,0.01
2019-02-21T10:43:47.258Z,0.01
2019-02-21T10:46:17.392Z,0.04
2019-02-21T10:48:47.525Z,-0.11
2019-02-21T10:51:17.643Z,-0.16
2019-02-21T10:53:47.724Z,-0.21
2019-02-21T10:56:18.092Z,-0.21
2019-02-21T10:58:48.342Z,-0.27
2019-02-21T11:01:18.503Z,-0.20
2019-02-21T11:03:48.608Z,-0.21
2019-02-21T11:06:18.769Z,-0.19
2019-02-21T11:08:48.882Z,-0.17
2019-02-21T11:11:19.015Z,-0.18
2019-02-21T11:13:49.128Z,-0.19
2019-02-21T11:16:19.244Z,-0.19
2019-02-21T11:18:49.368Z,-0.11
2019-02-21T11:21:19.505Z,-0.11
2019-02-21T11:23:49.624Z,-0.02
2019-02-21T11:26:19.848Z,-0.04
2019-02-21T11:28:49.966Z,0.01
2019-02-21T11:31:20.086Z,-0.02
2019-02-21T11:33:50.225Z,-0.10
2019-02-21T11:36:21.335Z,-0.08
2019-02-21T11:38:51.469Z,-0.07
2019-02-21T11:41:21.583Z,-0.02
2019-02-21T11:43:51.705Z,0.01
2019-02-21T11:46:21.804Z,0.04
2019-02-21T11:48:53.036Z,0.05
2019-02-21T11:51:23.137Z,0.10
2019-02-21T11:53:53.263Z,0.11
2019-02-21T11:56:23.409Z,0.16
2019-02-21T11:58:53.534Z,0.09
2019-02-21T12:01:24.306Z,0.21
2019-02-21T12:03:54.406Z,0.23
2019-02-21T12:06:24.504Z,0.16
2019-02-21T12:08:54.723Z,0.20
2019-02-21T12:11:24.834Z,0.17
2019-02-21T12:13:55.387Z,0.18
2019-02-21T12:16:25.641Z,0.18
2019-02-21T12:18:55.992Z,0.14
2019-02-21T12:21:26.103Z,0.14
2019-02-21T12:23:56.218Z,0.13
2019-02-21T12:26:26.420Z,0.13
2019-02-21T12:28:56.559Z,0.20
2019-02-21T12:31:26.663Z,0.20
2019-02-21T12:33:56.855Z,0.10
2019-02-21T12:36:26.952Z,0.08
2019-02-21T12:38:57.066Z,0.06
2019-02-21T12:41:27.166Z,0.03
2019-02-21T12:43:57.297Z,0.05
2019-02-21T12:46:27.478Z,0.08
2019-02-21T12:48:57.597Z,0.05
2019-02-21T12:51:27.780Z,0.11
2019-02-21T12:53:57.914Z,0.07
2019-02-21T12:56:28.016Z,0.04
2019-02-21T12:58:58.160Z,0.11
2019-02-21T13:01:28.411Z,0.12
2019-02-21T13:03:58.504Z,0.22
2019-02-21T13:06:28.611Z,0.13
2019-02-21T13:08:58.707Z,0.10
2019-02-21T13:11:28.814Z,0.20
2019-02-21T13:13:58.915Z,0.14
2019-02-21T13:16:29.003Z,0.09
2019-02-21T13:18:59.137Z,0.13
2019-02-21T13:21:29.242Z,0.13
2019-02-21T13:24:00.339Z,0.09
2019-02-21T13:26:30.460Z,0.05
2019-02-21T13:29:00.576Z,0.00
2019-02-21T13:31:30.673Z,0.05
2019-02-21T13:34:00.809Z,0.14
2019-02-21T13:36:30.902Z,0.07
2019-02-21T13:39:01.028Z,0.03
2019-02-21T13:41:32.776Z,-0.02
2019-02-21T13:44:03.046Z,-0.07
2019-02-21T13:46:37.317Z,-0.04
2019-02-21T13:49:05.386Z,-0.02
2019-02-21T13:51:35.567Z,-0.04
2019-02-21T13:54:05.689Z,-0.05
2019-02-21T13:56:36.916Z,-0.12
2019-02-21T13:59:07.083Z,-0.07
2019-02-21T14:01:37.176Z,-0.06
2019-02-21T14:04:07.296Z,0.00
2019-02-21T14:06:37.407Z,-0.06
2019-02-21T14:09:08.706Z,-0.03
2019-02-21T14:11:38.883Z,-0.04
2019-02-21T14:14:09.023Z,-0.04
2019-02-21T14:16:46.731Z,-0.05
2019-02-21T14:19:10.970Z,-0.03
2019-02-21T14:21:43.615Z,0.04
2019-02-21T14:24:13.067Z,-0.01
2019-02-21T14:26:43.221Z,-0.02
2019-02-21T14:29:13.342Z,-0.02
2019-02-21T14:31:44.500Z,-0.09
2019-02-21T14:34:14.638Z,-0.05
2019-02-21T14:36:44.732Z,-0.03
2019-02-21T14:39:14.961Z,-0.02
2019-02-21T14:41:45.106Z,-0.05
2019-02-21T14:44:15.222Z,0.04
2019-02-21T14:46:45.324Z,-0.02
2019-02-21T14:49:15.448Z,-0.04
2019-02-21T14:51:45.591Z,-0.03
2019-02-21T14:54:16.602Z,0.06
2019-02-21T14:56:46.829Z,-0.02
2019-02-21T14:59:19.772Z,-0.03
2019-02-21T15:01:48.777Z,-0.02
2019-02-21T15:04:18.875Z,0.02
2019-02-21T15:06:48.996Z,0.06
2019-02-21T15:09:19.106Z,0.07
2019-02-21T15:11:49.221Z,0.02
2019-02-21T15:14:19.409Z,-0.02
2019-02-21T15:16:49.554Z,-0.02
2019-02-21T15:19:19.681Z,-0.02
2019-02-21T15:21:49.828Z,-0.03
2019-02-21T15:24:19.939Z,0.01
2019-02-21T15:26:50.093Z,-0.02
2019-02-21T15:29:20.200Z,0.02
2019-02-21T15:31:50.411Z,0.03
2019-02-21T15:34:20.767Z,0.02
2019-02-21T15:36:50.893Z,-0.03
2019-02-21T15:39:21.010Z,-0.01
2019-02-21T15:41:51.128Z,-0.03
2019-02-21T15:44:21.682Z,-0.10
2019-02-21T15:46:51.837Z,-0.07
2019-02-21T15:49:21.972Z,-0.01
2019-02-21T15:51:52.191Z,-0.02
2019-02-21T15:54:22.306Z,-0.02
2019-02-21T15:56:53.006Z,-0.06
2019-02-21T15:59:23.704Z,-0.07
2019-02-21T16:01:53.845Z,-0.06
2019-02-21T16:04:23.999Z,-0.07
2019-02-21T16:06:54.145Z,-0.03
2019-02-21T16:09:25.397Z,-0.06
2019-02-21T16:11:55.802Z,-0.12
2019-02-21T16:14:30.355Z,-0.07
2019-02-21T16:17:00.887Z,-0.08
2019-02-21T16:19:31.002Z,-0.15
2019-02-21T16:22:01.139Z,-0.11
2019-02-21T16:24:31.250Z,-0.11
2019-02-21T16:27:01.386Z,-0.19
2019-02-21T16:29:31.509Z,-0.25
2019-02-21T16:32:01.988Z,-0.30
2019-02-21T16:34:33.094Z,-0.33
2019-02-21T16:37:03.269Z,-0.36
2019-02-21T16:39:33.389Z,-0.32
2019-02-21T16:42:03.590Z,-0.33
2019-02-21T16:44:33.683Z,-0.42
2019-02-21T16:47:05.825Z,-0.46
2019-02-21T16:49:37.093Z,-0.44
2019-02-21T16:52:07.354Z,-0.46
2019-02-21T16:54:37.547Z,-0.41
2019-02-21T16:57:07.688Z,-0.43
2019-02-21T16:59:39.029Z,-0.38
2019-02-21T17:02:08.548Z,-0.40
2019-02-21T17:04:38.684Z,-0.37
2019-02-21T17:07:15.171Z,-0.44
2019-02-21T17:09:40.601Z,-0.41
2019-02-21T17:12:10.738Z,-0.41
2019-02-21T17:14:41.914Z,-0.39
2019-02-21T17:17:12.051Z,-0.44
2019-02-21T17:19:42.228Z,-0.49
2019-02-21T17:22:13.252Z,-0.49
2019-02-21T17:24:43.330Z,-0.63
2019-02-21T17:27:13.454Z,-0.63
2019-02-21T17:29:43.582Z,-0.71
2019-02-21T17:32:13.716Z,-0.73
2019-02-21T17:34:43.796Z,-0.77
2019-02-21T17:37:24.385Z,-0.74
2019-02-21T17:39:45.759Z,-0.80
2019-02-21T17:42:15.885Z,-0.89
2019-02-21T17:44:47.110Z,-0.94
2019-02-21T17:47:17.238Z,-0.88
2019-02-21T17:49:47.376Z,-0.96
2019-02-21T17:52:17.719Z,-1.00
2019-02-21T17:54:47.836Z,-1.10
2019-02-21T17:57:17.971Z,-1.13
2019-02-21T17:59:48.147Z,-1.21
2019-02-21T18:02:18.297Z,-1.23
2019-02-21T18:04:48.555Z,-1.34
2019-02-21T18:07:18.682Z,-1.37
2019-02-21T18:09:48.873Z,-1.44
2019-02-21T18:12:19.968Z,-1.49
2019-02-21T18:14:50.208Z,-1.50
2019-02-21T18:17:20.397Z,-1.59
2019-02-21T18:19:50.652Z,-1.67
2019-02-21T18:22:20.849Z,-1.66
2019-02-21T18:24:50.967Z,-1.62
2019-02-21T18:27:21.218Z,-1.62
2019-02-21T18:29:51.358Z,-2.49
2019-02-21T18:32:21.558Z,-1.68
2019-02-21T18:34:51.756Z,-1.68
2019-02-21T18:37:21.899Z,-1.73
2019-02-21T18:39:52.065Z,-1.74
2019-02-21T18:42:22.226Z,-1.69
2019-02-21T18:44:52.360Z,-1.74
2019-02-21T18:47:22.504Z,-1.67
2019-02-21T18:49:53.864Z,-1.72
2019-02-21T18:52:24.129Z,-1.75
2019-02-21T18:54:55.360Z,-1.66
2019-02-21T18:57:25.512Z,-1.65
2019-02-21T18:59:55.638Z,-1.68
2019-02-21T19:02:25.886Z,-1.61
2019-02-21T19:04:56.019Z,-1.68
2019-02-21T19:07:26.149Z,-1.72
2019-02-21T19:09:56.317Z,-1.66
2019-02-21T19:12:26.468Z,-1.75
2019-02-21T19:14:56.743Z,-1.77
2019-02-21T19:17:26.965Z,-1.80
2019-02-21T19:19:57.138Z,-1.80
2019-02-21T19:22:27.406Z,-1.76
2019-02-21T19:24:58.545Z,-1.81
2019-02-21T19:27:36.859Z,-1.76
2019-02-21T19:30:00.839Z,-1.73
2019-02-21T19:32:31.728Z,-1.70
2019-02-21T19:35:02.154Z,-1.63
2019-02-21T19:37:33.371Z,-1.73
2019-02-21T19:40:03.515Z,-1.69
2019-02-21T19:42:33.705Z,-1.70
2019-02-21T19:45:03.951Z,-1.71
2019-02-21T19:47:34.077Z,-1.68
2019-02-21T19:50:04.523Z,-1.74
2019-02-21T19:52:34.873Z,-1.65
2019-02-21T19:55:05.183Z,-1.73
2019-02-21T19:57:35.301Z,-1.76
2019-02-21T20:00:07.052Z,-1.81
2019-02-21T20:02:39.334Z,-1.77
2019-02-21T20:05:10.931Z,-1.87
2019-02-21T20:07:43.866Z,-1.91
2019-02-21T20:10:14.870Z,-1.87
2019-02-21T20:12:45.142Z,-1.89
2019-02-21T20:15:15.707Z,-1.82
2019-02-21T20:17:45.926Z,-1.98
2019-02-21T20:20:16.971Z,-2.00
2019-02-21T20:22:47.140Z,-2.07
2019-02-21T20:25:18.241Z,-2.15
2019-02-21T20:27:48.487Z,-2.14
2019-02-21T20:30:18.820Z,-2.20
2019-02-21T20:32:49.070Z,-2.20
2019-02-21T20:35:19.291Z,-2.22
2019-02-21T20:37:49.553Z,-2.20
2019-02-21T20:40:19.686Z,-2.21
2019-02-21T20:42:49.995Z,-2.19
2019-02-21T20:45:20.127Z,-2.29
2019-02-21T20:47:50.313Z,-2.29
2019-02-21T20:50:20.421Z,-2.29
2019-02-21T20:52:50.673Z,-2.39
2019-02-21T20:55:20.836Z,-2.28
2019-02-21T20:57:51.005Z,-2.27
2019-02-21T21:00:21.195Z,-2.36
2019-02-21T21:02:51.386Z,-2.36
2019-02-21T21:05:21.510Z,-2.41
2019-02-21T21:07:51.643Z,-2.52
2019-02-21T21:10:23.754Z,-2.52
2019-02-21T21:12:53.892Z,-2.59
2019-02-21T21:15:24.034Z,-2.59
2019-02-21T21:17:54.896Z,-2.67
2019-02-21T21:20:26.033Z,-2.61
2019-02-21T21:22:56.280Z,-2.67
2019-02-21T21:25:26.450Z,-2.78
2019-02-21T21:27:56.787Z,-2.83
2019-02-21T21:30:26.946Z,-2.75
2019-02-21T21:32:57.066Z,-2.78
2019-02-21T21:35:27.212Z,-2.81
2019-02-21T21:37:58.834Z,-2.86
2019-02-21T21:40:28.963Z,-2.89
2019-02-21T21:43:00.234Z,-2.88
2019-02-21T21:45:30.351Z,-2.89
2019-02-21T21:48:00.664Z,-2.87
2019-02-21T21:50:30.914Z,-2.94
2019-02-21T21:53:01.295Z,-3.06
2019-02-21T21:55:31.417Z,-3.02
2019-02-21T21:58:01.601Z,-3.03
2019-02-21T22:00:31.789Z,-3.09
2019-02-21T22:03:01.912Z,-3.16
2019-02-21T22:05:32.075Z,-3.14
2019-02-21T22:08:02.183Z,-3.23
2019-02-21T22:10:32.286Z,-3.24
2019-02-21T22:13:02.417Z,-3.30
2019-02-21T22:15:32.524Z,-3.21
2019-02-21T22:18:02.659Z,-3.20
2019-02-21T22:20:32.781Z,-3.14
2019-02-21T22:23:02.892Z,-3.13
2019-02-21T22:25:33.025Z,-3.12
2019-02-21T22:28:03.201Z,-3.27
2019-02-21T22:30:33.314Z,-3.33
2019-02-21T22:33:03.467Z,-3.28
2019-02-21T22:35:33.565Z,-3.23
2019-02-21T22:38:03.700Z,-3.27
2019-02-21T22:40:34.292Z,-3.22
2019-02-21T22:43:04.489Z,-3.27
2019-02-21T22:45:34.592Z,-3.26
2019-02-21T22:48:04.731Z,-3.28
2019-02-21T22:50:34.874Z,-3.26
2019-02-21T22:53:05.030Z,-3.26
2019-02-21T22:55:35.142Z,-3.23
2019-02-21T22:58:05.280Z,-3.23
2019-02-21T23:00:58.671Z,-3.26
2019-02-21T23:03:43.154Z,-3.31
2019-02-21T23:06:27.819Z,-3.31
2019-02-21T23:08:57.950Z,-3.28
2019-02-21T23:11:28.062Z,-3.39
2019-02-21T23:13:58.236Z,-3.33
2019-02-21T23:16:28.365Z,-3.31
2019-02-21T23:18:58.524Z,-3.31
2019-02-21T23:21:28.632Z,-3.27
2019-02-21T23:24:01.245Z,-3.26
2019-02-21T23:26:31.352Z,-3.24
2019-02-21T23:29:01.474Z,-3.18
2019-02-21T23:31:31.737Z,-3.15
2019-02-21T23:34:02.185Z,-3.14
2019-02-21T23:36:32.283Z,-3.15
2019-02-21T23:39:02.478Z,-3.14
2019-02-21T23:41:34.193Z,-3.14
2019-02-21T23:44:05.394Z,-3.14
2019-02-21T23:46:35.539Z,-3.11
2019-02-21T23:49:05.677Z,-3.12
2019-02-21T23:51:35.818Z,-3.12
2019-02-21T23:54:05.954Z,-3.12
2019-02-21T23:56:36.069Z,-3.13
2019-02-21T23:59:06.265Z,-3.13
